createdAt,value
2023-02-28T00:00:38.885Z,18.40
2023-02-28T00:03:05.836Z,19.10
2023-02-28T00:05:33.266Z,19.83
2023-02-28T00:08:00.444Z,23.40
2023-02-28T00:10:31.943Z,18.63
2023-02-28T00:13:05.605Z,16.60
2023-02-28T00:15:32.896Z,18.27
2023-02-28T00:18:00.130Z,22.70
2023-02-28T00:20:27.789Z,15.90
2023-02-28T00:22:55.435Z,18.60
2023-02-28T00:25:24.610Z,21.53
2023-02-28T00:27:51.909Z,17.70
2023-02-28T00:30:21.229Z,24.30
2023-02-28T00:32:48.343Z,19.50
2023-02-28T00:35:15.375Z,21.53
2023-02-28T00:37:42.533Z,23.03
2023-02-28T00:40:10.511Z,23.73
2023-02-28T00:42:37.456Z,23.10
2023-02-28T00:45:05.781Z,19.67
2023-02-28T00:47:33.195Z,20.83
2023-02-28T00:50:00.677Z,16.90
2023-02-28T00:52:27.960Z,18.77
2023-02-28T00:54:55.477Z,29.40
2023-02-28T00:57:22.251Z,16.40
2023-02-28T00:59:49.098Z,19.40
2023-02-28T01:02:16.207Z,14.70
2023-02-28T01:04:43.290Z,19.83
2023-02-28T01:07:10.557Z,18.80
2023-02-28T01:09:37.414Z,13.23
2023-02-28T01:12:04.439Z,14.87
2023-02-28T01:14:31.172Z,15.93
2023-02-28T01:16:58.274Z,17.10
2023-02-28T01:19:25.402Z,16.53
2023-02-28T01:21:52.523Z,23.23
2023-02-28T01:24:19.552Z,19.70
2023-02-28T01:26:46.614Z,20.97
2023-02-28T01:29:13.758Z,19.70
2023-02-28T01:31:40.941Z,14.37
2023-02-28T01:34:08.069Z,16.80
2023-02-28T01:36:35.193Z,15.07
2023-02-28T01:39:01.899Z,15.43
2023-02-28T01:41:32.662Z,16.10
2023-02-28T01:44:38.056Z,17.17
2023-02-28T01:47:05.162Z,17.13
2023-02-28T01:49:32.278Z,19.93
2023-02-28T01:51:59.385Z,18.17
2023-02-28T01:54:30.524Z,20.27
2023-02-28T01:57:10.867Z,18.33
2023-02-28T01:59:52.936Z,21.23
2023-02-28T02:02:22.759Z,20.10
2023-02-28T02:04:59.813Z,21.33
2023-02-28T02:07:27.578Z,25.20
2023-02-28T02:10:18.833Z,23.63
2023-02-28T02:13:08.513Z,21.13
2023-02-28T02:15:55.318Z,16.17
2023-02-28T02:18:59.632Z,19.43
2023-02-28T02:21:51.053Z,17.10
2023-02-28T02:24:48.437Z,17.87
2023-02-28T02:27:36.429Z,20.10
2023-02-28T02:30:44.361Z,20.80
2023-02-28T02:33:25.709Z,23.70
2023-02-28T02:35:57.682Z,20.73
2023-02-28T02:38:39.619Z,21.67
2023-02-28T02:41:19.862Z,19.40
2023-02-28T02:43:49.666Z,24.90
2023-02-28T02:46:24.690Z,15.87
2023-02-28T02:48:54.625Z,23.20
2023-02-28T02:51:24.060Z,15.70
2023-02-28T02:54:02.911Z,18.90
2023-02-28T02:56:32.600Z,20.67
2023-02-28T02:59:05.297Z,21.17
2023-02-28T03:01:33.334Z,16.67
2023-02-28T03:04:08.164Z,24.43
2023-02-28T03:06:36.185Z,19.60
2023-02-28T03:09:03.823Z,22.40
2023-02-28T03:11:31.945Z,18.53
2023-02-28T03:14:30.773Z,19.27
2023-02-28T03:17:09.372Z,20.13
2023-02-28T03:20:00.378Z,23.60
2023-02-28T03:23:12.298Z,18.17
2023-02-28T03:26:00.510Z,31.40
2023-02-28T03:29:06.413Z,19.83
2023-02-28T03:31:44.764Z,18.47
2023-02-28T03:34:11.890Z,21.27
2023-02-28T03:36:45.062Z,22.90
2023-02-28T03:39:22.841Z,19.47
2023-02-28T03:41:50.675Z,21.03
2023-02-28T03:44:23.122Z,22.37
2023-02-28T03:47:04.845Z,22.20
2023-02-28T03:49:49.588Z,15.67
2023-02-28T03:52:19.683Z,18.20
2023-02-28T03:54:51.116Z,21.00
2023-02-28T03:57:57.616Z,18.57
2023-02-28T04:00:30.760Z,17.83
2023-02-28T04:02:57.876Z,17.13
2023-02-28T04:05:25.701Z,20.23
2023-02-28T04:07:52.831Z,24.70
2023-02-28T04:10:19.733Z,15.83
2023-02-28T04:12:46.803Z,20.50
2023-02-28T04:15:13.636Z,19.80
2023-02-28T04:17:40.706Z,21.80
2023-02-28T04:20:10.600Z,17.50
2023-02-28T04:22:38.355Z,21.10
2023-02-28T04:25:06.576Z,17.83
2023-02-28T04:27:33.510Z,19.90
2023-02-28T04:30:00.308Z,20.53
2023-02-28T04:32:27.508Z,14.77
2023-02-28T04:38:16.799Z,19.30
2023-02-28T04:40:43.876Z,19.10
2023-02-28T04:43:10.965Z,20.93
2023-02-28T04:45:38.082Z,16.93
2023-02-28T04:48:05.203Z,23.40
2023-02-28T04:50:32.310Z,21.90
2023-02-28T04:52:59.666Z,20.00
2023-02-28T04:55:26.822Z,17.10
2023-02-28T04:57:53.953Z,16.23
2023-02-28T05:00:21.167Z,16.23
2023-02-28T05:02:48.320Z,11.27
2023-02-28T05:05:19.072Z,21.13
2023-02-28T05:07:46.269Z,18.37
2023-02-28T05:10:13.630Z,19.17
2023-02-28T05:12:40.836Z,21.30
2023-02-28T05:15:09.426Z,15.97
2023-02-28T05:17:36.523Z,18.93
2023-02-28T05:20:15.052Z,17.47
2023-02-28T05:22:42.769Z,22.00
2023-02-28T05:25:13.775Z,22.10
2023-02-28T05:27:40.903Z,23.30
2023-02-28T05:30:11.306Z,16.03
2023-02-28T05:32:38.973Z,15.33
2023-02-28T05:35:06.119Z,13.03
2023-02-28T05:37:32.992Z,16.10
2023-02-28T05:40:00.244Z,25.23
2023-02-28T05:42:27.382Z,16.30
2023-02-28T05:44:54.542Z,21.57
2023-02-28T05:47:21.619Z,17.53
2023-02-28T05:49:48.783Z,21.07
2023-02-28T05:52:16.111Z,17.47
2023-02-28T05:54:43.240Z,20.40
2023-02-28T05:57:19.083Z,29.30
2023-02-28T05:59:50.969Z,18.30
2023-02-28T06:02:18.478Z,17.23
2023-02-28T06:04:45.796Z,19.03
2023-02-28T06:07:12.560Z,21.17
2023-02-28T06:09:39.731Z,19.03
2023-02-28T06:12:08.129Z,25.50
2023-02-28T06:14:35.491Z,23.30
2023-02-28T06:17:02.896Z,18.20
2023-02-28T06:19:31.071Z,20.03
2023-02-28T06:21:58.283Z,21.37
2023-02-28T06:24:28.872Z,22.70
2023-02-28T06:26:55.956Z,21.53
2023-02-28T06:29:23.064Z,28.63
2023-02-28T06:31:50.269Z,30.40
2023-02-28T06:34:17.503Z,22.23
2023-02-28T06:36:44.844Z,22.90
2023-02-28T06:39:11.936Z,24.63
2023-02-28T06:41:53.618Z,18.90
2023-02-28T06:44:21.667Z,18.23
2023-02-28T06:46:49.104Z,17.93
2023-02-28T06:49:16.456Z,17.13
2023-02-28T06:51:47.872Z,17.10
2023-02-28T06:54:14.808Z,21.00
2023-02-28T06:56:41.970Z,19.93
2023-02-28T06:59:09.198Z,22.47
2023-02-28T07:01:36.366Z,21.77
2023-02-28T07:04:03.292Z,25.20
2023-02-28T07:06:30.443Z,21.60
2023-02-28T07:08:57.179Z,21.33
2023-02-28T07:11:26.899Z,18.60
2023-02-28T07:13:57.892Z,19.73
2023-02-28T07:16:26.290Z,20.10
2023-02-28T07:18:56.817Z,27.23
2023-02-28T07:21:23.876Z,17.50
2023-02-28T07:23:51.046Z,17.07
2023-02-28T07:26:19.847Z,17.73
2023-02-28T07:28:48.508Z,19.37
2023-02-28T07:31:16.847Z,18.03
2023-02-28T07:33:44.231Z,18.27
2023-02-28T07:36:16.080Z,25.97
2023-02-28T07:38:46.449Z,25.07
2023-02-28T07:41:16.528Z,32.80
2023-02-28T07:43:43.337Z,31.33
2023-02-28T07:46:12.665Z,39.87
2023-02-28T07:48:39.735Z,54.60
2023-02-28T07:51:06.499Z,73.87
2023-02-28T07:53:33.520Z,173.47
2023-02-28T07:56:02.885Z,171.07
2023-02-28T07:58:31.022Z,142.70
2023-02-28T08:00:58.479Z,100.50
2023-02-28T08:03:25.940Z,76.53
2023-02-28T08:05:53.680Z,77.03
2023-02-28T08:08:20.356Z,29.07
2023-02-28T08:10:47.188Z,33.33
2023-02-28T08:13:13.887Z,23.70
2023-02-28T08:15:43.825Z,21.57
2023-02-28T08:18:11.065Z,28.83
2023-02-28T08:20:37.954Z,35.27
2023-02-28T08:23:04.791Z,31.47
2023-02-28T08:25:31.487Z,30.20
2023-02-28T08:27:58.216Z,23.47
2023-02-28T08:30:24.932Z,28.80
2023-02-28T08:32:51.816Z,24.83
2023-02-28T08:35:18.725Z,16.20
2023-02-28T08:37:45.769Z,19.43
2023-02-28T08:40:18.922Z,16.17
2023-02-28T08:42:46.307Z,17.30
2023-02-28T08:45:14.702Z,18.43
2023-02-28T08:47:42.072Z,15.47
2023-02-28T08:50:09.360Z,16.43
2023-02-28T08:52:36.151Z,16.07
2023-02-28T08:55:02.970Z,14.03
2023-02-28T08:57:29.741Z,19.10
2023-02-28T08:59:56.510Z,17.97
2023-02-28T09:02:23.249Z,13.53
2023-02-28T09:04:49.971Z,15.97
2023-02-28T09:07:16.934Z,13.10
2023-02-28T09:09:54.716Z,17.83
2023-02-28T09:12:23.313Z,12.83
2023-02-28T09:14:50.130Z,10.80
2023-02-28T09:17:17.207Z,11.57
2023-02-28T09:19:44.239Z,12.40
2023-02-28T09:22:12.159Z,8.50
2023-02-28T09:27:08.099Z,12.97
2023-02-28T09:29:35.602Z,8.53
2023-02-28T09:32:02.990Z,13.83
2023-02-28T09:34:32.958Z,10.67
2023-02-28T09:36:59.808Z,12.40
2023-02-28T09:39:27.796Z,8.07
2023-02-28T09:41:56.351Z,11.43
2023-02-28T09:44:31.946Z,10.93
2023-02-28T09:47:31.667Z,12.90
2023-02-28T09:50:02.017Z,7.40
2023-02-28T09:52:33.570Z,7.80
2023-02-28T09:55:30.636Z,7.43
2023-02-28T09:58:00.845Z,9.03
2023-02-28T10:00:34.957Z,7.80
2023-02-28T10:03:28.792Z,5.20
2023-02-28T10:06:17.733Z,7.60
2023-02-28T10:09:04.480Z,14.83
2023-02-28T10:11:34.384Z,8.90
2023-02-28T10:14:10.589Z,15.37
2023-02-28T10:16:54.626Z,7.90
2023-02-28T10:19:33.888Z,7.00
2023-02-28T10:22:13.435Z,6.87
2023-02-28T10:24:54.780Z,6.87
2023-02-28T10:27:28.838Z,5.33
2023-02-28T10:29:58.234Z,7.80
2023-02-28T10:32:31.060Z,7.07
2023-02-28T10:35:01.351Z,5.83
2023-02-28T10:37:29.215Z,9.17
2023-02-28T10:39:57.277Z,8.10
2023-02-28T10:42:29.739Z,7.00
2023-02-28T10:45:15.955Z,6.80
2023-02-28T10:48:01.848Z,7.90
2023-02-28T10:50:28.704Z,7.87
2023-02-28T10:52:55.913Z,6.37
2023-02-28T10:55:26.824Z,8.70
2023-02-28T10:57:53.817Z,6.63
2023-02-28T11:00:28.832Z,6.70
2023-02-28T11:02:55.752Z,11.70
2023-02-28T11:05:32.784Z,5.67
2023-02-28T11:08:19.090Z,7.80
2023-02-28T11:10:58.732Z,9.27
2023-02-28T11:13:36.706Z,5.47
2023-02-28T11:16:09.866Z,6.53
2023-02-28T11:18:54.739Z,10.87
2023-02-28T11:21:28.541Z,8.50
2023-02-28T11:24:05.068Z,8.90
2023-02-28T11:26:47.254Z,9.70
2023-02-28T11:29:31.913Z,6.67
2023-02-28T11:32:13.990Z,6.27
2023-02-28T11:34:42.474Z,7.93
2023-02-28T11:37:16.428Z,10.23
2023-02-28T11:39:44.580Z,6.70
2023-02-28T11:42:52.854Z,17.87
2023-02-28T11:45:43.757Z,6.73
2023-02-28T11:48:10.850Z,6.83
2023-02-28T11:50:43.252Z,10.53
2023-02-28T11:53:31.699Z,6.30
2023-02-28T11:56:07.314Z,7.93
2023-02-28T11:58:52.084Z,11.60
2023-02-28T12:01:45.450Z,4.30
2023-02-28T12:04:53.259Z,5.90
2023-02-28T12:07:34.062Z,6.20
2023-02-28T12:10:20.825Z,5.83
2023-02-28T12:13:09.337Z,5.63
2023-02-28T12:15:55.483Z,5.37
2023-02-28T12:18:57.646Z,4.60
2023-02-28T12:21:59.325Z,5.70
2023-02-28T12:24:50.236Z,4.30
2023-02-28T12:27:22.716Z,6.50
2023-02-28T12:30:01.967Z,11.70
2023-02-28T12:32:37.633Z,10.37
2023-02-28T12:35:13.700Z,4.10
2023-02-28T12:37:41.138Z,5.17
2023-02-28T12:40:15.034Z,4.93
2023-02-28T12:42:47.271Z,5.43
2023-02-28T12:45:25.923Z,6.43
2023-02-28T12:48:02.278Z,6.57
2023-02-28T12:50:32.314Z,5.97
2023-02-28T12:53:11.924Z,6.17
2023-02-28T12:56:00.868Z,4.60
2023-02-28T12:58:33.451Z,5.03
2023-02-28T13:01:12.300Z,6.03
2023-02-28T13:04:03.821Z,8.47
2023-02-28T13:06:54.778Z,9.97
2023-02-28T13:09:22.335Z,10.03
2023-02-28T13:11:52.030Z,5.80
2023-02-28T13:14:31.413Z,6.43
2023-02-28T13:17:15.801Z,10.40
2023-02-28T13:19:53.115Z,11.10
2023-02-28T13:22:49.169Z,7.33
2023-02-28T13:25:34.081Z,6.83
2023-02-28T13:28:05.024Z,9.17
2023-02-28T13:30:56.985Z,6.13
2023-02-28T13:33:45.274Z,11.53
2023-02-28T13:36:15.380Z,10.17
2023-02-28T13:38:56.348Z,8.97
2023-02-28T13:41:32.349Z,11.30
2023-02-28T13:44:05.077Z,7.20
2023-02-28T13:46:33.967Z,6.10
2023-02-28T13:49:30.245Z,7.47
2023-02-28T13:52:17.390Z,8.20
2023-02-28T13:54:52.772Z,8.23
2023-02-28T13:57:34.407Z,6.57
2023-02-28T14:00:06.457Z,7.17
2023-02-28T14:02:47.203Z,6.73
2023-02-28T14:05:27.213Z,6.27
2023-02-28T14:08:18.609Z,4.50
2023-02-28T14:10:47.888Z,12.60
2023-02-28T14:13:26.556Z,5.33
2023-02-28T14:16:05.255Z,5.90
2023-02-28T14:18:36.936Z,7.20
2023-02-28T14:21:27.341Z,6.80
2023-02-28T14:24:21.347Z,7.10
2023-02-28T14:27:07.219Z,6.00
2023-02-28T14:30:05.570Z,6.37
2023-02-28T14:33:05.332Z,7.33
2023-02-28T14:35:54.766Z,9.00
2023-02-28T14:38:28.845Z,5.73
2023-02-28T14:40:59.374Z,4.97
2023-02-28T14:43:28.081Z,6.73
2023-02-28T14:46:03.469Z,11.53
2023-02-28T14:48:30.528Z,5.60
2023-02-28T14:51:02.068Z,7.43
2023-02-28T14:53:31.615Z,7.83
2023-02-28T14:55:58.460Z,6.20
2023-02-28T14:58:31.362Z,8.53
2023-02-28T15:01:03.834Z,6.17
2023-02-28T15:03:30.933Z,7.77
2023-02-28T15:06:03.270Z,7.30
2023-02-28T15:08:32.736Z,6.73
2023-02-28T15:11:02.542Z,6.93
2023-02-28T15:13:42.754Z,8.60
2023-02-28T15:16:17.492Z,9.00
2023-02-28T15:19:00.261Z,8.00
2023-02-28T15:21:39.992Z,7.00
2023-02-28T15:24:33.719Z,8.50
2023-02-28T15:27:04.494Z,6.60
2023-02-28T15:29:36.337Z,7.63
2023-02-28T15:32:06.813Z,8.10
2023-02-28T15:34:45.609Z,8.47
2023-02-28T15:37:33.864Z,9.37
2023-02-28T15:40:28.336Z,7.57
2023-02-28T15:43:16.602Z,9.30
2023-02-28T15:45:52.410Z,11.10
2023-02-28T15:48:21.284Z,6.27
2023-02-28T15:50:57.183Z,8.97
2023-02-28T15:53:32.458Z,8.77
2023-02-28T15:56:03.298Z,9.20
2023-02-28T15:58:30.638Z,13.30
2023-02-28T16:01:25.897Z,10.50
2023-02-28T16:03:55.966Z,16.27
2023-02-28T16:06:31.766Z,6.30
2023-02-28T16:08:58.919Z,9.83
2023-02-28T16:11:25.999Z,7.87
2023-02-28T16:13:53.792Z,4.80
2023-02-28T16:16:23.494Z,13.37
2023-02-28T16:18:50.522Z,10.03
2023-02-28T16:21:17.726Z,8.87
2023-02-28T16:23:44.678Z,9.80
2023-02-28T16:26:23.367Z,7.50
2023-02-28T16:28:50.884Z,10.13
2023-02-28T16:31:17.744Z,8.87
2023-02-28T16:33:48.607Z,6.70
2023-02-28T16:36:26.092Z,11.23
2023-02-28T16:38:53.352Z,9.80
2023-02-28T16:41:22.471Z,11.93
2023-02-28T16:43:52.329Z,18.20
2023-02-28T16:46:20.479Z,10.57
2023-02-28T16:48:49.644Z,12.83
2023-02-28T16:51:17.430Z,7.73
2023-02-28T16:53:45.560Z,10.43
2023-02-28T16:56:24.704Z,11.47
2023-02-28T16:58:52.036Z,19.00
2023-02-28T17:01:22.837Z,10.90
2023-02-28T17:03:50.904Z,8.93
2023-02-28T17:06:26.712Z,8.90
2023-02-28T17:08:53.477Z,9.45
2023-02-28T17:11:20.868Z,9.30
2023-02-28T17:13:48.937Z,10.73
2023-02-28T17:16:32.270Z,12.67
2023-02-28T17:19:02.194Z,14.10
2023-02-28T17:21:29.894Z,14.60
2023-02-28T17:23:56.971Z,14.00
2023-02-28T17:26:25.664Z,19.70
2023-02-28T17:28:53.453Z,13.23
2023-02-28T17:31:20.623Z,17.37
2023-02-28T17:33:47.787Z,18.13
2023-02-28T17:36:16.354Z,78.33
2023-02-28T17:38:43.474Z,35.80
2023-02-28T17:41:13.330Z,35.00
2023-02-28T17:43:40.441Z,26.70
2023-02-28T17:46:15.590Z,13.23
2023-02-28T17:48:42.755Z,15.93
2023-02-28T17:51:13.273Z,20.73
2023-02-28T17:53:40.131Z,17.80
2023-02-28T17:56:11.917Z,24.63
2023-02-28T17:58:39.010Z,18.83
2023-02-28T18:01:05.974Z,14.10
2023-02-28T18:03:33.129Z,19.27
2023-02-28T18:06:00.397Z,20.30
2023-02-28T18:08:27.552Z,17.27
2023-02-28T18:10:54.300Z,20.43
2023-02-28T18:13:21.432Z,12.83
2023-02-28T18:15:48.626Z,16.30
2023-02-28T18:18:16.690Z,18.03
2023-02-28T18:20:43.866Z,23.53
2023-02-28T18:23:11.016Z,17.87
2023-02-28T18:25:39.007Z,28.57
2023-02-28T18:28:06.133Z,25.33
2023-02-28T18:30:34.438Z,15.73
2023-02-28T18:33:02.217Z,20.07
2023-02-28T18:35:36.087Z,26.60
2023-02-28T18:38:04.777Z,29.23
2023-02-28T18:40:31.888Z,24.13
2023-02-28T18:42:59.070Z,22.27
2023-02-28T18:45:26.209Z,24.57
2023-02-28T18:47:53.339Z,50.17
2023-02-28T18:50:20.538Z,20.33
2023-02-28T18:52:47.739Z,23.60
2023-02-28T18:55:18.762Z,29.17
2023-02-28T18:57:46.963Z,34.07
2023-02-28T19:00:16.011Z,24.53
2023-02-28T19:02:43.014Z,33.60
2023-02-28T19:05:12.266Z,23.20
2023-02-28T19:07:39.175Z,26.30
2023-02-28T19:10:06.533Z,21.30
2023-02-28T19:12:37.146Z,21.83
2023-02-28T19:15:05.840Z,21.57
2023-02-28T19:17:33.227Z,23.47
2023-02-28T19:20:00.416Z,25.33
2023-02-28T19:22:27.647Z,22.07
2023-02-28T19:24:54.761Z,32.47
2023-02-28T19:27:21.525Z,39.50
2023-02-28T19:29:49.835Z,59.20
2023-02-28T19:32:17.121Z,38.90
2023-02-28T19:34:44.134Z,27.43
2023-02-28T19:37:11.329Z,35.60
2023-02-28T19:39:41.229Z,32.20
2023-02-28T19:42:09.316Z,34.30
2023-02-28T19:44:36.444Z,27.70
2023-02-28T19:47:03.778Z,37.70
2023-02-28T19:49:30.721Z,21.63
2023-02-28T19:51:57.862Z,24.77
2023-02-28T19:54:25.405Z,31.83
2023-02-28T19:56:54.416Z,22.70
2023-02-28T19:59:48.481Z,24.00
2023-02-28T20:02:17.858Z,21.53
2023-02-28T20:04:48.767Z,20.80
2023-02-28T20:07:16.540Z,22.83
2023-02-28T20:09:44.897Z,24.37
2023-02-28T20:12:23.475Z,19.37
2023-02-28T20:14:51.230Z,22.60
2023-02-28T20:17:18.386Z,24.13
2023-02-28T20:19:45.445Z,21.37
2023-02-28T20:22:12.642Z,29.13
2023-02-28T20:24:39.875Z,21.53
2023-02-28T20:27:06.996Z,23.60
2023-02-28T20:29:34.745Z,22.73
2023-02-28T20:32:02.168Z,24.60
2023-02-28T20:34:29.376Z,27.20
2023-02-28T20:36:59.617Z,31.23
2023-02-28T20:39:26.598Z,27.63
2023-02-28T20:41:53.733Z,27.33
2023-02-28T20:44:20.638Z,21.17
2023-02-28T20:46:47.802Z,28.47
2023-02-28T20:49:15.730Z,30.10
2023-02-28T20:51:42.551Z,28.97
2023-02-28T20:54:11.737Z,25.07
2023-02-28T20:56:39.303Z,26.50
2023-02-28T20:59:06.461Z,23.37
2023-02-28T21:01:33.758Z,26.37
2023-02-28T21:04:03.391Z,21.53
2023-02-28T21:06:37.216Z,27.20
2023-02-28T21:09:08.491Z,25.20
2023-02-28T21:11:37.395Z,21.20
2023-02-28T21:14:06.758Z,23.40
2023-02-28T21:16:36.521Z,18.40
2023-02-28T21:19:04.765Z,20.47
2023-02-28T21:21:38.512Z,20.97
2023-02-28T21:24:06.149Z,23.17
2023-02-28T21:26:33.547Z,23.07
2023-02-28T21:29:02.002Z,26.47
2023-02-28T21:31:31.879Z,23.30
2023-02-28T21:34:00.055Z,24.13
2023-02-28T21:36:35.142Z,21.13
2023-02-28T21:39:11.916Z,23.23
2023-02-28T21:41:38.693Z,17.10
2023-02-28T21:44:05.652Z,24.53
2023-02-28T21:46:33.323Z,24.27
2023-02-28T21:49:00.415Z,22.40
2023-02-28T21:51:32.655Z,28.63
2023-02-28T21:54:00.459Z,19.77
2023-02-28T21:56:30.511Z,20.77
2023-02-28T21:59:01.052Z,25.10
2023-02-28T22:01:32.610Z,28.33
2023-02-28T22:03:59.735Z,30.57
2023-02-28T22:06:29.874Z,26.07
2023-02-28T22:08:58.745Z,30.60
2023-02-28T22:11:26.488Z,22.73
2023-02-28T22:13:57.857Z,24.37
2023-02-28T22:16:29.496Z,28.67
2023-02-28T22:18:58.449Z,24.67
2023-02-28T22:21:25.643Z,26.17
2023-02-28T22:23:53.007Z,24.67
2023-02-28T22:26:21.833Z,20.37
2023-02-28T22:28:49.953Z,30.87
2023-02-28T22:31:17.167Z,25.07
2023-02-28T22:33:45.071Z,27.37
2023-02-28T22:36:14.739Z,23.57
2023-02-28T22:38:54.434Z,23.30
2023-02-28T22:41:23.676Z,22.50
2023-02-28T22:43:56.312Z,24.33
2023-02-28T22:46:24.488Z,21.23
2023-02-28T22:48:51.437Z,18.83
2023-02-28T22:51:24.002Z,25.23
2023-02-28T22:53:52.066Z,25.67
2023-02-28T22:56:21.219Z,27.63
2023-02-28T22:58:52.785Z,24.90
2023-02-28T23:01:20.817Z,26.00
2023-02-28T23:03:48.416Z,35.13
2023-02-28T23:06:38.017Z,29.80
2023-02-28T23:09:07.502Z,32.17
2023-02-28T23:11:37.976Z,27.73
2023-02-28T23:14:05.436Z,23.43
2023-02-28T23:16:36.234Z,28.07
2023-02-28T23:19:06.324Z,28.13
2023-02-28T23:21:34.278Z,28.77
2023-02-28T23:24:05.251Z,24.20
2023-02-28T23:26:33.297Z,26.70
2023-02-28T23:29:01.206Z,28.80
2023-02-28T23:31:28.423Z,33.33
2023-02-28T23:33:56.556Z,26.60
2023-02-28T23:36:23.547Z,25.57
2023-02-28T23:38:51.987Z,35.63
2023-02-28T23:41:20.043Z,25.63
2023-02-28T23:43:47.213Z,27.70
2023-02-28T23:46:14.842Z,28.03
2023-02-28T23:48:42.350Z,30.67
2023-02-28T23:51:14.219Z,29.80
2023-02-28T23:53:43.594Z,30.03
2023-02-28T23:56:14.713Z,33.87
2023-02-28T23:58:45.848Z,36.93
